Time;durP1;ratioP1;P1;durP2;ratioP2;P2;SDS_P1;SDS_P2;PMS_P1;PMS_P2;Temp;Humidity;BMP_temperature;BMP_pressure;BME280_temperature;BME280_humidity;BME280_pressure;Samples;Min_cycle;Max_cycle;Signal;HPM_P1;HPM_P2
2022/03/27 00:00:42;;;;;;;32.90;14.77;;;;;;;;;;4952917;28;20046;-70
2022/03/27 00:03:07;;;;;;;37.85;15.52;;;;;;;;;;4963119;28;20070;-69
2022/03/27 00:05:33;;;;;;;30.45;15.10;;;;;;;;;;4963732;28;20046;-70
2022/03/27 00:07:59;;;;;;;33.45;15.88;;;;;;;;;;4962907;28;20026;-70
2022/03/27 00:10:25;;;;;;;32.70;16.00;;;;;;;;;;4960507;28;20101;-70
2022/03/27 00:12:50;;;;;;;39.42;16.67;;;;;;;;;;4960778;28;20407;-70
2022/03/27 00:15:15;;;;;;;33.13;16.70;;;;;;;;;;4961741;28;20042;-70
2022/03/27 00:17:41;;;;;;;36.53;16.25;;;;;;;;;;4962386;28;20038;-70
2022/03/27 00:20:10;;;;;;;33.47;15.55;;;;;;;;;;4963236;28;20097;-70
2022/03/27 00:22:37;;;;;;;34.22;15.15;;;;;;;;;;4960776;28;20039;-70
2022/03/27 00:25:07;;;;;;;40.72;14.80;;;;;;;;;;4963482;28;20030;-71
2022/03/27 00:27:33;;;;;;;29.80;14.52;;;;;;;;;;4962542;28;20031;-70
2022/03/27 00:29:59;;;;;;;30.80;12.77;;;;;;;;;;4962720;28;20053;-69
2022/03/27 00:32:25;;;;;;;38.92;14.80;;;;;;;;;;4955647;28;20042;-70
2022/03/27 00:34:51;;;;;;;29.95;13.80;;;;;;;;;;4961207;28;20058;-70
2022/03/27 00:37:17;;;;;;;25.38;13.20;;;;;;;;;;4962806;28;20038;-70
2022/03/27 00:39:43;;;;;;;27.42;11.85;;;;;;;;;;4962570;28;20054;-70
2022/03/27 00:42:09;;;;;;;27.02;11.32;;;;;;;;;;4962848;28;20191;-70
2022/03/27 00:44:38;;;;;;;28.83;11.88;;;;;;;;;;4926854;28;20035;-70
2022/03/27 00:47:05;;;;;;;23.98;12.25;;;;;;;;;;4954036;28;20050;-71
2022/03/27 00:49:32;;;;;;;24.45;11.38;;;;;;;;;;4962211;28;20288;-70
2022/03/27 00:51:57;;;;;;;27.83;11.13;;;;;;;;;;4959819;28;20057;-70
2022/03/27 00:54:23;;;;;;;23.55;11.15;;;;;;;;;;4960987;28;20042;-70
2022/03/27 00:56:48;;;;;;;23.63;12.15;;;;;;;;;;4961820;28;20484;-70
2022/03/27 00:59:14;;;;;;;30.98;11.18;;;;;;;;;;4957101;28;20039;-70
2022/03/27 01:01:40;;;;;;;27.17;11.88;;;;;;;;;;4950171;28;20062;-71
2022/03/27 01:04:07;;;;;;;27.58;13.40;;;;;;;;;;4955275;28;20038;-70
2022/03/27 01:06:41;;;;;;;29.55;13.27;;;;;;;;;;4956774;28;20049;-70
2022/03/27 01:11:56;;;;;;;32.85;12.57;;;;;;;;;;4961431;28;20042;-70
2022/03/27 01:14:32;;;;;;;32.58;14.30;;;;;;;;;;4961321;28;20125;-69
2022/03/27 01:17:01;;;;;;;31.65;12.52;;;;;;;;;;4954532;28;20437;-71
2022/03/27 01:19:28;;;;;;;26.98;12.20;;;;;;;;;;4961322;28;20045;-71
2022/03/27 01:21:53;;;;;;;29.02;11.38;;;;;;;;;;4961951;28;20058;-71
2022/03/27 01:24:19;;;;;;;24.77;11.48;;;;;;;;;;4947342;28;20038;-71
2022/03/27 01:26:45;;;;;;;23.75;11.68;;;;;;;;;;4959495;28;20074;-71
2022/03/27 01:29:11;;;;;;;28.45;11.98;;;;;;;;;;4956631;28;20131;-71
2022/03/27 01:31:36;;;;;;;31.27;12.40;;;;;;;;;;4957603;28;20117;-69
2022/03/27 01:34:03;;;;;;;25.75;11.80;;;;;;;;;;4961832;28;20144;-69
2022/03/27 01:36:37;;;;;;;27.70;10.02;;;;;;;;;;4952830;28;20043;-70
2022/03/27 01:39:14;;;;;;;21.88;9.23;;;;;;;;;;4956381;28;20038;-69
2022/03/27 01:41:40;;;;;;;17.88;7.82;;;;;;;;;;4954637;28;20043;-70
2022/03/27 01:44:09;;;;;;;20.50;8.25;;;;;;;;;;4954615;28;20030;-69
2022/03/27 01:46:37;;;;;;;20.85;8.82;;;;;;;;;;4960558;28;20066;-70
2022/03/27 01:49:05;;;;;;;19.33;8.30;;;;;;;;;;4958487;28;20043;-70
2022/03/27 01:51:31;;;;;;;21.67;9.35;;;;;;;;;;4951609;28;20070;-70
2022/03/27 01:53:57;;;;;;;24.00;9.30;;;;;;;;;;4955713;28;20042;-71
2022/03/27 01:56:23;;;;;;;18.58;8.98;;;;;;;;;;4962543;28;20042;-71
2022/03/27 01:58:49;;;;;;;20.42;9.40;;;;;;;;;;4951869;28;20134;-71
2022/03/27 02:01:15;;;;;;;17.50;9.15;;;;;;;;;;4959343;28;20039;-71
2022/03/27 02:03:41;;;;;;;20.25;8.45;;;;;;;;;;4962421;28;20066;-71
2022/03/27 02:06:06;;;;;;;23.27;10.95;;;;;;;;;;4965413;28;20177;-70
2022/03/27 02:08:35;;;;;;;19.92;9.88;;;;;;;;;;4965738;28;20038;-70
2022/03/27 02:11:02;;;;;;;25.65;9.82;;;;;;;;;;4960704;28;20089;-70
2022/03/27 02:13:29;;;;;;;24.75;11.32;;;;;;;;;;4960829;28;20907;-70
2022/03/27 02:15:57;;;;;;;26.67;11.30;;;;;;;;;;4961273;28;20039;-71
2022/03/27 02:18:25;;;;;;;27.33;10.20;;;;;;;;;;4966332;28;20034;-69
2022/03/27 02:20:50;;;;;;;29.35;12.43;;;;;;;;;;4965137;28;20035;-71
2022/03/27 02:23:16;;;;;;;29.67;11.68;;;;;;;;;;4960563;28;20470;-70
2022/03/27 02:25:41;;;;;;;30.75;12.50;;;;;;;;;;4965001;28;20491;-70
2022/03/27 02:28:07;;;;;;;22.50;11.10;;;;;;;;;;4947640;28;20034;-71
2022/03/27 02:30:34;;;;;;;24.23;11.00;;;;;;;;;;4961656;28;20392;-71
2022/03/27 02:32:59;;;;;;;23.55;10.55;;;;;;;;;;4964751;28;20173;-71
2022/03/27 02:35:25;;;;;;;21.30;10.35;;;;;;;;;;4960410;28;20141;-70
2022/03/27 02:37:51;;;;;;;28.27;11.13;;;;;;;;;;4947537;28;20035;-71
2022/03/27 02:40:16;;;;;;;22.80;11.05;;;;;;;;;;4959099;28;20039;-71
2022/03/27 02:42:42;;;;;;;26.85;11.07;;;;;;;;;;4956882;28;20062;-71
2022/03/27 02:45:08;;;;;;;25.65;10.27;;;;;;;;;;4956719;28;20039;-71
2022/03/27 02:47:34;;;;;;;22.88;9.82;;;;;;;;;;4954140;28;21187;-71
2022/03/27 02:49:59;;;;;;;21.70;9.52;;;;;;;;;;4963689;28;20061;-71
2022/03/27 02:52:24;;;;;;;22.80;10.50;;;;;;;;;;4965278;28;20062;-71
2022/03/27 02:54:50;;;;;;;27.45;10.13;;;;;;;;;;4964579;28;20085;-71
2022/03/27 02:57:16;;;;;;;22.48;10.55;;;;;;;;;;4963617;28;20109;-71
2022/03/27 02:59:42;;;;;;;31.75;10.73;;;;;;;;;;4964206;28;20515;-71
2022/03/27 03:02:07;;;;;;;20.13;9.43;;;;;;;;;;4956878;28;20057;-70
2022/03/27 03:04:37;;;;;;;18.55;8.07;;;;;;;;;;4942044;28;20039;-71
2022/03/27 03:07:03;;;;;;;24.95;8.82;;;;;;;;;;4959807;28;20039;-71
2022/03/27 03:09:29;;;;;;;26.65;9.95;;;;;;;;;;4960156;28;20035;-70
2022/03/27 03:11:54;;;;;;;19.83;9.57;;;;;;;;;;4959697;28;20422;-70
2022/03/27 03:14:20;;;;;;;22.73;9.25;;;;;;;;;;4962322;28;20042;-70
2022/03/27 03:16:46;;;;;;;21.08;10.13;;;;;;;;;;4965907;28;20046;-70
2022/03/27 03:19:12;;;;;;;18.95;8.98;;;;;;;;;;4965443;28;20114;-70
2022/03/27 03:21:38;;;;;;;24.40;8.73;;;;;;;;;;4968314;28;20038;-70
2022/03/27 03:24:05;;;;;;;22.88;10.60;;;;;;;;;;4946698;28;20051;-71
2022/03/27 03:26:30;;;;;;;27.88;10.18;;;;;;;;;;4959771;28;20034;-70
2022/03/27 03:28:56;;;;;;;26.95;10.27;;;;;;;;;;4954228;28;20035;-70
2022/03/27 03:31:22;;;;;;;26.33;11.32;;;;;;;;;;4959718;28;20030;-69
2022/03/27 03:33:48;;;;;;;24.23;10.35;;;;;;;;;;4946038;28;20047;-70
2022/03/27 03:36:15;;;;;;;27.27;11.38;;;;;;;;;;4950677;28;20035;-71
2022/03/27 03:38:41;;;;;;;22.95;11.23;;;;;;;;;;4960227;28;20088;-70
2022/03/27 03:41:08;;;;;;;29.90;12.38;;;;;;;;;;4962861;28;20042;-70
2022/03/27 03:43:36;;;;;;;30.33;13.73;;;;;;;;;;4964064;28;20141;-71
2022/03/27 03:46:03;;;;;;;33.60;13.32;;;;;;;;;;4962695;28;20034;-70
2022/03/27 03:48:29;;;;;;;34.80;11.88;;;;;;;;;;4961088;28;20045;-70
2022/03/27 03:50:54;;;;;;;26.95;12.32;;;;;;;;;;4956272;28;20046;-70
2022/03/27 03:53:20;;;;;;;31.48;12.55;;;;;;;;;;4963891;28;20034;-70
2022/03/27 03:55:45;;;;;;;28.23;11.50;;;;;;;;;;4962686;28;20392;-69
2022/03/27 03:58:11;;;;;;;24.80;10.98;;;;;;;;;;4956632;28;20205;-70
2022/03/27 04:00:36;;;;;;;21.52;11.35;;;;;;;;;;4959029;28;20023;-70
2022/03/27 04:03:02;;;;;;;26.23;11.50;;;;;;;;;;4956355;28;20050;-70
2022/03/27 04:05:28;;;;;;;23.55;12.25;;;;;;;;;;4963767;28;20105;-70
2022/03/27 04:07:53;;;;;;;27.15;11.77;;;;;;;;;;4952512;28;20047;-69
2022/03/27 04:10:19;;;;;;;26.85;12.35;;;;;;;;;;4947499;28;20559;-69
2022/03/27 04:12:45;;;;;;;24.67;12.50;;;;;;;;;;4947246;28;20484;-69
2022/03/27 04:15:11;;;;;;;26.83;13.52;;;;;;;;;;4948700;28;20520;-69
2022/03/27 04:17:46;;;;;;;26.02;12.88;;;;;;;;;;4950570;28;20043;-70
2022/03/27 04:20:13;;;;;;;26.25;12.50;;;;;;;;;;4952775;28;20059;-69
2022/03/27 04:22:42;;;;;;;24.73;13.05;;;;;;;;;;4950688;28;20043;-70
2022/03/27 04:25:09;;;;;;;29.38;12.57;;;;;;;;;;4949950;28;20513;-69
2022/03/27 04:27:35;;;;;;;28.70;12.77;;;;;;;;;;4958719;28;20042;-70
2022/03/27 04:30:08;;;;;;;30.80;14.55;;;;;;;;;;4962446;28;20043;-70
2022/03/27 04:32:34;;;;;;;;;;;;;;;;;;4950128;28;20043;-70
2022/03/27 04:34:59;;;;;;;25.23;12.73;;;;;;;;;;4950019;28;19929;-70
2022/03/27 04:37:24;;;;;;;24.95;13.40;;;;;;;;;;4947010;28;20042;-70
2022/03/27 04:39:50;;;;;;;22.63;13.25;;;;;;;;;;4944908;28;20730;-69
2022/03/27 04:42:15;;;;;;;30.27;13.52;;;;;;;;;;4945582;28;20089;-70
2022/03/27 04:44:41;;;;;;;25.30;12.60;;;;;;;;;;4945033;28;20031;-69
2022/03/27 04:47:06;;;;;;;26.08;14.23;;;;;;;;;;4944953;28;20652;-69
2022/03/27 04:49:32;;;;;;;26.13;13.35;;;;;;;;;;4944646;28;20047;-70
2022/03/27 04:51:58;;;;;;;28.50;14.15;;;;;;;;;;4944907;28;20047;-69
2022/03/27 04:54:24;;;;;;;23.00;13.88;;;;;;;;;;4944483;28;20122;-70
2022/03/27 04:56:50;;;;;;;27.83;12.52;;;;;;;;;;4945264;28;20533;-69
2022/03/27 04:59:15;;;;;;;27.45;13.63;;;;;;;;;;4948611;28;20050;-70
2022/03/27 05:01:41;;;;;;;31.08;13.57;;;;;;;;;;4948315;28;20073;-69
2022/03/27 05:04:07;;;;;;;28.98;14.18;;;;;;;;;;4947929;28;20069;-70
2022/03/27 05:06:33;;;;;;;32.05;14.95;;;;;;;;;;4946019;28;20118;-70
2022/03/27 05:08:58;;;;;;;28.45;14.45;;;;;;;;;;4945242;28;20174;-70
2022/03/27 05:11:27;;;;;;;23.45;14.55;;;;;;;;;;4945117;28;20058;-70
2022/03/27 05:13:53;;;;;;;28.15;14.80;;;;;;;;;;4947957;28;20046;-70
2022/03/27 05:16:19;;;;;;;29.10;14.80;;;;;;;;;;4948576;28;20393;-70
2022/03/27 05:18:44;;;;;;;27.05;14.15;;;;;;;;;;4947426;28;20047;-70
2022/03/27 05:21:10;;;;;;;25.48;14.45;;;;;;;;;;4950654;28;20039;-69
2022/03/27 05:23:36;;;;;;;27.20;14.23;;;;;;;;;;4946815;28;20039;-70
2022/03/27 05:26:02;;;;;;;29.05;15.00;;;;;;;;;;4930321;28;20035;-70
2022/03/27 05:28:27;;;;;;;25.60;14.43;;;;;;;;;;4954511;28;20424;-69
2022/03/27 05:30:55;;;;;;;37.50;15.45;;;;;;;;;;4952554;28;20163;-70
2022/03/27 05:33:20;;;;;;;26.33;14.20;;;;;;;;;;4962071;28;20049;-70
2022/03/27 05:35:46;;;;;;;25.13;13.75;;;;;;;;;;4962234;28;20026;-71
2022/03/27 05:38:11;;;;;;;25.83;15.10;;;;;;;;;;4958718;28;20512;-71
2022/03/27 05:40:37;;;;;;;28.65;14.82;;;;;;;;;;4953972;28;20045;-70
2022/03/27 05:43:02;;;;;;;31.65;14.52;;;;;;;;;;4962041;28;20050;-71
2022/03/27 05:45:28;;;;;;;30.30;15.05;;;;;;;;;;4958736;28;20032;-71
2022/03/27 05:47:53;;;;;;;29.50;13.75;;;;;;;;;;4956753;28;20053;-70
2022/03/27 05:50:22;;;;;;;28.13;14.40;;;;;;;;;;4958468;28;20070;-70
2022/03/27 05:52:48;;;;;;;24.60;14.20;;;;;;;;;;4954604;28;20942;-71
2022/03/27 05:55:14;;;;;;;28.55;13.70;;;;;;;;;;4943833;28;20105;-71
2022/03/27 05:57:40;;;;;;;27.20;14.43;;;;;;;;;;4948228;28;20043;-70
2022/03/27 06:00:09;;;;;;;23.70;13.00;;;;;;;;;;4947340;28;20125;-71
2022/03/27 06:02:35;;;;;;;30.30;14.18;;;;;;;;;;4946618;28;20047;-71
2022/03/27 06:05:04;;;;;;;25.77;12.98;;;;;;;;;;4930359;28;20035;-71
2022/03/27 06:07:29;;;;;;;24.40;13.50;;;;;;;;;;4949975;28;20039;-70
2022/03/27 06:09:54;;;;;;;25.10;14.48;;;;;;;;;;4929663;28;20456;-71
2022/03/27 06:12:20;;;;;;;27.05;13.38;;;;;;;;;;4947941;28;20118;-71
2022/03/27 06:14:45;;;;;;;25.48;14.32;;;;;;;;;;4947093;28;20054;-71
2022/03/27 06:17:10;;;;;;;28.33;14.10;;;;;;;;;;4946119;28;20058;-71
2022/03/27 06:19:36;;;;;;;30.35;14.55;;;;;;;;;;4947334;28;20509;-71
2022/03/27 06:22:01;;;;;;;27.55;14.38;;;;;;;;;;4949045;28;20039;-71
2022/03/27 06:24:27;;;;;;;23.38;13.38;;;;;;;;;;4944505;28;20042;-71
2022/03/27 06:26:52;;;;;;;27.80;14.02;;;;;;;;;;4941043;28;20066;-71
2022/03/27 06:29:18;;;;;;;24.80;14.00;;;;;;;;;;4948025;28;20062;-71
2022/03/27 06:31:45;;;;;;;25.55;14.32;;;;;;;;;;4947392;28;20564;-71
2022/03/27 06:34:10;;;;;;;34.45;14.60;;;;;;;;;;4946853;28;20114;-72
2022/03/27 06:36:36;;;;;;;26.42;14.60;;;;;;;;;;4951762;28;20114;-70
2022/03/27 06:39:03;;;;;;;25.65;14.60;;;;;;;;;;4958645;28;20045;-71
2022/03/27 06:41:29;;;;;;;23.40;13.35;;;;;;;;;;4959901;28;20033;-71
2022/03/27 06:43:54;;;;;;;22.52;14.57;;;;;;;;;;4953244;28;20042;-71
2022/03/27 06:46:20;;;;;;;23.33;14.77;;;;;;;;;;4952528;28;20042;-71
2022/03/27 06:48:48;;;;;;;27.38;13.93;;;;;;;;;;4959611;28;20411;-71
2022/03/27 06:51:14;;;;;;;23.40;13.70;;;;;;;;;;4959919;28;20539;-71
2022/03/27 06:53:40;;;;;;;24.15;13.52;;;;;;;;;;4951107;28;20050;-72
2022/03/27 06:56:06;;;;;;;25.85;13.82;;;;;;;;;;4958576;28;20045;-71
2022/03/27 06:58:32;;;;;;;23.05;13.18;;;;;;;;;;4958048;28;20039;-70
2022/03/27 07:03:42;;;;;;;20.38;13.15;;;;;;;;;;4951055;28;20039;-70
2022/03/27 07:06:07;;;;;;;22.23;13.00;;;;;;;;;;4945308;28;20110;-71
2022/03/27 07:08:33;;;;;;;21.42;12.75;;;;;;;;;;4951510;28;20544;-72
2022/03/27 07:10:58;;;;;;;17.65;12.18;;;;;;;;;;4952216;28;20043;-70
2022/03/27 07:13:24;;;;;;;19.90;12.25;;;;;;;;;;4950797;28;21102;-70
2022/03/27 07:15:50;;;;;;;19.08;12.23;;;;;;;;;;4951470;28;20035;-71
2022/03/27 07:18:20;;;;;;;20.27;12.75;;;;;;;;;;4937259;28;20038;-71
2022/03/27 07:20:47;;;;;;;18.98;12.63;;;;;;;;;;4951030;28;20039;-71
2022/03/27 07:23:14;;;;;;;19.17;11.98;;;;;;;;;;4951599;28;20472;-71
2022/03/27 07:25:42;;;;;;;21.33;12.25;;;;;;;;;;4948846;28;20094;-70
2022/03/27 07:28:09;;;;;;;20.75;12.68;;;;;;;;;;4953003;28;20113;-70
2022/03/27 07:30:35;;;;;;;19.63;13.02;;;;;;;;;;4959573;28;20041;-71
2022/03/27 07:33:00;;;;;;;20.33;12.65;;;;;;;;;;4959935;28;21009;-71
2022/03/27 07:35:26;;;;;;;21.88;13.20;;;;;;;;;;4963163;28;20033;-71
2022/03/27 07:37:53;;;;;;;26.40;13.15;;;;;;;;;;4962571;28;20057;-72
2022/03/27 07:40:20;;;;;;;20.33;12.85;;;;;;;;;;4963858;28;20492;-71
2022/03/27 07:42:49;;;;;;;19.23;12.85;;;;;;;;;;4958834;28;20034;-71
2022/03/27 07:45:15;;;;;;;21.05;12.55;;;;;;;;;;4960758;28;20339;-71
2022/03/27 07:47:40;;;;;;;19.60;12.10;;;;;;;;;;4926667;28;20115;-72
2022/03/27 07:50:07;;;;;;;18.52;12.63;;;;;;;;;;4963310;28;20137;-72
2022/03/27 07:52:34;;;;;;;19.77;12.25;;;;;;;;;;4954897;28;20467;-71
2022/03/27 07:55:00;;;;;;;19.13;12.13;;;;;;;;;;4962417;28;20062;-72
2022/03/27 07:57:26;;;;;;;17.90;12.00;;;;;;;;;;4962121;28;20041;-71
2022/03/27 07:59:52;;;;;;;22.80;12.68;;;;;;;;;;4962878;28;20047;-72
2022/03/27 08:02:21;;;;;;;32.45;12.63;;;;;;;;;;4959651;28;20038;-71
2022/03/27 08:04:47;;;;;;;22.27;13.18;;;;;;;;;;4958545;28;20107;-71
2022/03/27 08:07:13;;;;;;;26.45;13.43;;;;;;;;;;4963218;28;20042;-70
2022/03/27 08:09:39;;;;;;;20.83;14.07;;;;;;;;;;4963334;28;20046;-71
2022/03/27 08:12:07;;;;;;;21.45;13.07;;;;;;;;;;4952894;28;20086;-71
2022/03/27 08:14:33;;;;;;;23.15;13.30;;;;;;;;;;4949091;28;20050;-72
2022/03/27 08:16:59;;;;;;;24.02;14.50;;;;;;;;;;4957960;28;20081;-72
2022/03/27 08:19:25;;;;;;;26.80;14.20;;;;;;;;;;4963748;28;20066;-70
2022/03/27 08:21:51;;;;;;;29.10;14.48;;;;;;;;;;4963172;28;20038;-71
2022/03/27 08:24:16;;;;;;;27.17;14.63;;;;;;;;;;4951792;28;20046;-71
2022/03/27 08:26:57;;;;;;;25.33;13.60;;;;;;;;;;4955310;28;20769;-71
2022/03/27 08:29:24;;;;;;;21.42;13.82;;;;;;;;;;4961353;28;20185;-73
2022/03/27 08:31:50;;;;;;;23.10;13.18;;;;;;;;;;4956656;28;20088;-72
2022/03/27 08:34:17;;;;;;;22.63;14.25;;;;;;;;;;4961635;28;20049;-73
2022/03/27 08:36:47;;;;;;;26.35;13.68;;;;;;;;;;4952413;28;20082;-73
2022/03/27 08:39:14;;;;;;;23.65;14.25;;;;;;;;;;4952376;28;20522;-71
2022/03/27 08:41:48;;;;;;;23.25;13.70;;;;;;;;;;4930947;28;20492;-71
2022/03/27 08:44:16;;;;;;;27.83;14.80;;;;;;;;;;4947777;28;20566;-71
2022/03/27 08:46:45;;;;;;;22.85;14.30;;;;;;;;;;4952391;28;20028;-71
2022/03/27 08:49:54;;;;;;;21.60;13.30;;;;;;;;;;4953157;28;20039;-72
2022/03/27 08:52:41;;;;;;;23.75;12.98;;;;;;;;;;4940896;28;20035;-72
2022/03/27 08:55:13;;;;;;;21.10;12.15;;;;;;;;;;4950540;28;20408;-71
2022/03/27 08:58:00;;;;;;;20.10;11.80;;;;;;;;;;4949206;28;20054;-70
2022/03/27 09:00:29;;;;;;;20.23;13.32;;;;;;;;;;4950658;28;20042;-70
2022/03/27 09:03:00;;;;;;;22.90;12.93;;;;;;;;;;4947993;28;20416;-72
2022/03/27 09:05:28;;;;;;;21.25;12.43;;;;;;;;;;4952283;28;20046;-71
2022/03/27 09:07:56;;;;;;;20.85;13.48;;;;;;;;;;4934725;28;20039;-70
2022/03/27 09:10:23;;;;;;;22.10;12.98;;;;;;;;;;4949731;28;20027;-70
2022/03/27 09:13:01;;;;;;;23.23;13.02;;;;;;;;;;4952491;28;20035;-70
2022/03/27 09:15:27;;;;;;;19.92;12.98;;;;;;;;;;4951310;28;20219;-70
2022/03/27 09:18:14;;;;;;;20.92;13.20;;;;;;;;;;4951605;28;20489;-70
2022/03/27 09:20:52;;;;;;;25.23;14.23;;;;;;;;;;4949291;28;20110;-70
2022/03/27 09:23:24;;;;;;;21.83;12.93;;;;;;;;;;4957813;28;20038;-70
2022/03/27 09:25:51;;;;;;;20.33;13.95;;;;;;;;;;4961819;28;20050;-70
2022/03/27 09:28:37;;;;;;;23.33;13.38;;;;;;;;;;4962537;28;20034;-70
2022/03/27 09:31:18;;;;;;;23.33;13.40;;;;;;;;;;4957754;28;20035;-70
2022/03/27 09:33:49;;;;;;;27.67;17.75;;;;;;;;;;4955343;28;20101;-70
2022/03/27 09:36:40;;;;;;;22.42;13.98;;;;;;;;;;4930611;28;20039;-71
2022/03/27 09:39:17;;;;;;;28.43;14.63;;;;;;;;;;4946963;28;20122;-72
2022/03/27 09:41:43;;;;;;;29.73;14.32;;;;;;;;;;4949760;28;20042;-71
2022/03/27 09:44:19;;;;;;;28.60;14.63;;;;;;;;;;4953439;28;20043;-73
2022/03/27 09:46:54;;;;;;;22.60;13.90;;;;;;;;;;4949040;28;20054;-73
2022/03/27 09:49:37;;;;;;;25.13;13.80;;;;;;;;;;4953694;28;20038;-71
2022/03/27 09:52:13;;;;;;;33.42;13.70;;;;;;;;;;4957914;28;20122;-71
2022/03/27 09:54:53;;;;;;;23.50;14.98;;;;;;;;;;4955084;28;20499;-72
2022/03/27 09:57:36;;;;;;;25.42;14.35;;;;;;;;;;4953413;28;20041;-74
2022/03/27 10:00:14;;;;;;;24.60;14.63;;;;;;;;;;4956090;28;20034;-72
2022/03/27 10:02:40;;;;;;;26.25;15.70;;;;;;;;;;4960090;28;20043;-72
2022/03/27 10:05:07;;;;;;;24.25;14.75;;;;;;;;;;4947128;28;20043;-71
2022/03/27 10:07:44;;;;;;;29.88;15.32;;;;;;;;;;4950891;28;20046;-71
2022/03/27 10:10:13;;;;;;;27.00;15.30;;;;;;;;;;4944146;28;20039;-70
2022/03/27 10:12:41;;;;;;;25.70;15.50;;;;;;;;;;4947761;28;20062;-70
2022/03/27 10:15:09;;;;;;;25.30;15.02;;;;;;;;;;4944359;28;20078;-72
2022/03/27 10:17:37;;;;;;;27.83;13.90;;;;;;;;;;4945981;28;20126;-71
2022/03/27 10:20:14;;;;;;;22.52;14.07;;;;;;;;;;4947222;28;20038;-72
2022/03/27 10:22:45;;;;;;;27.42;14.95;;;;;;;;;;4932732;28;20131;-71
2022/03/27 10:25:13;;;;;;;22.87;13.90;;;;;;;;;;4949011;28;20042;-70
2022/03/27 10:27:39;;;;;;;24.35;14.07;;;;;;;;;;4950186;28;20051;-72
2022/03/27 10:30:07;;;;;;;22.02;13.07;;;;;;;;;;4949944;28;20045;-71
2022/03/27 10:32:34;;;;;;;22.63;13.77;;;;;;;;;;4948042;28;20062;-71
2022/03/27 10:35:21;;;;;;;28.10;15.30;;;;;;;;;;4950595;28;20110;-71
2022/03/27 10:38:39;;;;;;;22.50;14.35;;;;;;;;;;4956968;28;20039;-71
2022/03/27 10:41:09;;;;;;;24.10;13.23;;;;;;;;;;4939730;28;20038;-70
2022/03/27 10:43:55;;;;;;;23.90;15.48;;;;;;;;;;4948114;28;20134;-71
2022/03/27 10:46:23;;;;;;;26.48;14.65;;;;;;;;;;4950061;28;20041;-71
2022/03/27 10:48:51;;;;;;;25.73;13.88;;;;;;;;;;4957822;28;20070;-70
2022/03/27 10:51:26;;;;;;;22.17;14.60;;;;;;;;;;4927273;28;20086;-72
2022/03/27 10:54:03;;;;;;;20.90;13.73;;;;;;;;;;4952386;28;20497;-70
2022/03/27 10:56:40;;;;;;;22.65;13.85;;;;;;;;;;4960203;28;20443;-71
2022/03/27 10:59:17;;;;;;;22.27;13.88;;;;;;;;;;4960935;28;20046;-71
2022/03/27 11:01:48;;;;;;;24.70;13.95;;;;;;;;;;4948985;28;20121;-70
2022/03/27 11:04:18;;;;;;;23.42;14.02;;;;;;;;;;4951320;28;20117;-70
2022/03/27 11:06:46;;;;;;;22.92;13.80;;;;;;;;;;4951892;28;20051;-70
2022/03/27 11:09:31;;;;;;;20.65;13.52;;;;;;;;;;4964942;28;20031;-71
2022/03/27 11:11:57;;;;;;;26.38;14.35;;;;;;;;;;4934022;28;20031;-71
2022/03/27 11:14:43;;;;;;;22.48;14.10;;;;;;;;;;4965173;28;20050;-71
2022/03/27 11:17:11;;;;;;;25.27;14.23;;;;;;;;;;4959164;28;20144;-71
2022/03/27 11:19:47;;;;;;;24.50;13.73;;;;;;;;;;4966083;28;20105;-71
2022/03/27 11:22:55;;;;;;;26.98;14.98;;;;;;;;;;4958683;28;20057;-71
2022/03/27 11:25:34;;;;;;;23.10;13.45;;;;;;;;;;4960751;28;20047;-71
2022/03/27 11:28:15;;;;;;;25.75;14.40;;;;;;;;;;4958787;28;20047;-72
2022/03/27 11:30:50;;;;;;;25.35;13.68;;;;;;;;;;4960453;28;20046;-70
2022/03/27 11:33:22;;;;;;;25.25;14.18;;;;;;;;;;4958668;28;20452;-68
2022/03/27 11:36:09;;;;;;;22.10;13.55;;;;;;;;;;4959368;28;20042;-71
2022/03/27 11:38:35;;;;;;;24.65;14.70;;;;;;;;;;4961328;28;20703;-70
2022/03/27 11:41:24;;;;;;;22.08;13.38;;;;;;;;;;4957586;28;20050;-72
2022/03/27 11:43:53;;;;;;;22.65;13.88;;;;;;;;;;4960616;28;20813;-69
2022/03/27 11:46:23;;;;;;;25.88;13.85;;;;;;;;;;4958575;28;20035;-72
2022/03/27 11:48:57;;;;;;;22.73;12.70;;;;;;;;;;4963192;28;20092;-70
2022/03/27 11:51:26;;;;;;;29.95;13.90;;;;;;;;;;4961585;28;20061;-72
2022/03/27 11:53:56;;;;;;;23.13;14.23;;;;;;;;;;4961469;28;20030;-72
2022/03/27 11:56:24;;;;;;;26.70;14.57;;;;;;;;;;4947713;28;20034;-72
2022/03/27 11:59:09;;;;;;;24.77;14.85;;;;;;;;;;4961444;28;20077;-71
2022/03/27 12:01:36;;;;;;;21.60;13.88;;;;;;;;;;4957130;28;20781;-72
2022/03/27 12:04:06;;;;;;;26.42;13.75;;;;;;;;;;4961497;28;20026;-70
2022/03/27 12:06:31;;;;;;;24.60;13.43;;;;;;;;;;4963108;28;20039;-71
2022/03/27 12:08:58;;;;;;;25.73;14.70;;;;;;;;;;4957922;28;20034;-72
2022/03/27 12:11:26;;;;;;;25.92;14.43;;;;;;;;;;4960724;28;20395;-71
2022/03/27 12:13:52;;;;;;;22.00;12.93;;;;;;;;;;4963166;28;20752;-71
2022/03/27 12:16:27;;;;;;;26.30;14.40;;;;;;;;;;4958139;28;20057;-71
2022/03/27 12:18:58;;;;;;;24.92;13.55;;;;;;;;;;4955251;28;20043;-72
2022/03/27 12:21:24;;;;;;;;;;;;;;;;;;4954304;28;20027;-70
2022/03/27 12:24:02;;;;;;;27.48;14.95;;;;;;;;;;4928443;28;19945;-70
2022/03/27 12:29:42;;;;;;;23.55;13.88;;;;;;;;;;4955655;28;20034;-70
2022/03/27 12:32:17;;;;;;;22.40;13.50;;;;;;;;;;4955018;28;20043;-70
2022/03/27 12:34:46;;;;;;;29.85;13.40;;;;;;;;;;4961739;28;20134;-69
2022/03/27 12:37:15;;;;;;;22.60;14.45;;;;;;;;;;4960964;28;20045;-69
2022/03/27 12:40:06;;;;;;;24.95;14.07;;;;;;;;;;4961003;28;20543;-69
2022/03/27 12:42:48;;;;;;;23.20;13.15;;;;;;;;;;4956628;28;20040;-69
2022/03/27 12:45:17;;;;;;;25.25;14.35;;;;;;;;;;4952003;28;20042;-69
2022/03/27 12:47:45;;;;;;;28.45;13.82;;;;;;;;;;4960258;28;20062;-70
2022/03/27 12:50:31;;;;;;;24.23;14.02;;;;;;;;;;4961688;28;20038;-70
2022/03/27 12:53:13;;;;;;;26.50;14.80;;;;;;;;;;4929840;28;20047;-70
2022/03/27 12:55:43;;;;;;;;;;;;;;;;;;4956544;28;20043;-69
2022/03/27 12:58:11;;;;;;;24.67;13.65;;;;;;;;;;4952865;28;19917;-69
2022/03/27 13:00:40;;;;;;;22.85;13.30;;;;;;;;;;4957992;28;20049;-69
2022/03/27 13:03:12;;;;;;;23.02;14.00;;;;;;;;;;4949414;28;20038;-70
2022/03/27 13:05:38;;;;;;;20.70;12.60;;;;;;;;;;4962851;28;21025;-71
2022/03/27 13:08:04;;;;;;;26.15;13.10;;;;;;;;;;4961799;28;20046;-72
2022/03/27 13:10:30;;;;;;;28.40;13.35;;;;;;;;;;4962232;28;20121;-73
2022/03/27 13:13:01;;;;;;;24.23;12.60;;;;;;;;;;4962195;28;20057;-71
2022/03/27 13:15:41;;;;;;;21.90;12.20;;;;;;;;;;4954973;28;20042;-72
2022/03/27 13:18:16;;;;;;;23.25;13.05;;;;;;;;;;4954561;28;20027;-70
2022/03/27 13:20:42;;;;;;;28.88;12.52;;;;;;;;;;4961717;28;20049;-70
2022/03/27 13:23:09;;;;;;;27.67;12.90;;;;;;;;;;4962225;28;20038;-70
2022/03/27 13:25:35;;;;;;;26.83;12.55;;;;;;;;;;4956465;28;21030;-70
2022/03/27 13:28:01;;;;;;;24.08;12.52;;;;;;;;;;4942621;28;20054;-71
2022/03/27 13:30:27;;;;;;;22.70;12.18;;;;;;;;;;4958996;28;20030;-71
2022/03/27 13:32:56;;;;;;;25.25;12.30;;;;;;;;;;4961586;28;20038;-71
2022/03/27 13:35:21;;;;;;;23.25;12.18;;;;;;;;;;4948782;28;20047;-71
2022/03/27 13:37:47;;;;;;;25.95;12.02;;;;;;;;;;4957341;28;20088;-71
2022/03/27 13:40:13;;;;;;;23.05;12.95;;;;;;;;;;4946893;28;20039;-71
2022/03/27 13:42:57;;;;;;;20.92;13.20;;;;;;;;;;4948261;28;20050;-71
2022/03/27 13:45:27;;;;;;;28.35;13.18;;;;;;;;;;4952577;28;20108;-71
2022/03/27 13:47:53;;;;;;;24.38;13.20;;;;;;;;;;4947337;28;20063;-71
2022/03/27 13:50:19;;;;;;;19.55;11.93;;;;;;;;;;4951759;28;20030;-71
2022/03/27 13:52:44;;;;;;;21.17;11.93;;;;;;;;;;4960910;28;20035;-71
2022/03/27 13:55:10;;;;;;;22.70;12.73;;;;;;;;;;4963433;28;20052;-71
2022/03/27 13:57:35;;;;;;;25.55;11.80;;;;;;;;;;4943748;28;20085;-71
2022/03/27 14:00:02;;;;;;;21.95;12.48;;;;;;;;;;4964525;28;20039;-70
2022/03/27 14:02:36;;;;;;;25.30;13.10;;;;;;;;;;4961688;28;20043;-70
2022/03/27 14:05:03;;;;;;;22.70;12.43;;;;;;;;;;4958016;28;20097;-71
2022/03/27 14:07:29;;;;;;;22.23;11.07;;;;;;;;;;4965469;28;20046;-70
2022/03/27 14:09:54;;;;;;;24.00;10.63;;;;;;;;;;4962161;28;20053;-70
2022/03/27 14:12:20;;;;;;;20.90;11.02;;;;;;;;;;4959281;28;20049;-70
2022/03/27 14:14:45;;;;;;;20.55;10.95;;;;;;;;;;4965068;28;20111;-72
2022/03/27 14:17:11;;;;;;;21.00;10.70;;;;;;;;;;4960642;28;20137;-70
2022/03/27 14:19:37;;;;;;;16.83;9.55;;;;;;;;;;4960643;28;20038;-70
2022/03/27 14:22:03;;;;;;;21.38;9.65;;;;;;;;;;4961890;28;20130;-70
2022/03/27 14:24:29;;;;;;;17.30;9.48;;;;;;;;;;4960418;28;20043;-70
2022/03/27 14:26:55;;;;;;;22.42;10.40;;;;;;;;;;4964757;28;20039;-70
2022/03/27 14:29:21;;;;;;;20.10;11.40;;;;;;;;;;4965417;28;20543;-71
2022/03/27 14:31:51;;;;;;;18.98;11.35;;;;;;;;;;4959275;28;20037;-71
2022/03/27 14:34:17;;;;;;;25.63;10.60;;;;;;;;;;4964558;28;20362;-72
2022/03/27 14:36:44;;;;;;;21.95;11.48;;;;;;;;;;4964931;28;20110;-71